Time;durP1;ratioP1;P1;durP2;ratioP2;P2;SDS_P1;SDS_P2;PMS_P1;PMS_P2;Temp;Humidity;BMP_temperature;BMP_pressure;BME280_temperature;BME280_humidity;BME280_pressure;Samples;Min_cycle;Max_cycle;Signal;HPM_P1;HPM_P2
2022/03/13 00:34:44;;;;;;;20.75;14.23;;;4.90;99.90;;;;;;6001490;23;20095;-40
2022/03/13 00:48:29;;;;;;;23.48;15.43;;;4.80;99.90;;;;;;5979263;23;20063;-41
2022/03/13 01:26:14;;;;;;;21.42;13.77;;;4.90;99.90;;;;;;5972560;23;20054;-40
2022/03/13 01:33:06;;;;;;;20.77;14.27;;;4.90;99.90;;;;;;6000938;23;20390;-40
2022/03/13 01:36:34;;;;;;;22.17;15.00;;;5.00;99.90;;;;;;6001454;23;20342;-40
2022/03/13 01:40:00;;;;;;;22.05;14.35;;;5.10;99.90;;;;;;5975650;23;20127;-40
2022/03/13 01:46:53;;;;;;;20.67;14.23;;;5.00;99.90;;;;;;6000765;23;20062;-40
2022/03/13 01:50:16;;;;;;;20.92;13.65;;;5.10;99.90;;;;;;6000825;23;20327;-40
2022/03/13 01:53:42;;;;;;;20.02;13.68;;;5.20;99.90;;;;;;5980009;23;20028;-40
2022/03/13 01:57:10;;;;;;;20.05;14.23;;;5.20;99.90;;;;;;6005273;23;20015;-40
2022/03/13 02:00:36;;;;;;;21.05;14.20;;;5.30;99.90;;;;;;5977702;23;20095;-40
2022/03/13 02:04:03;;;;;;;20.73;14.32;;;5.30;99.90;;;;;;5977646;23;20023;-40
2022/03/13 02:07:28;;;;;;;21.38;14.23;;;5.30;99.90;;;;;;6005420;23;20023;-40
2022/03/13 02:14:28;;;;;;;23.33;14.75;;;5.40;99.90;;;;;;6005017;23;20066;-40
2022/03/13 02:17:47;;;;;;;20.35;14.23;;;5.40;99.90;;;;;;6001956;23;20078;-40
2022/03/13 02:21:14;;;;;;;23.83;15.73;;;5.40;99.90;;;;;;5978342;23;20012;-40
2022/03/13 02:24:40;;;;;;;19.15;14.00;;;5.40;99.90;;;;;;6004616;23;20015;-40
2022/03/13 02:28:06;;;;;;;22.23;15.38;;;5.40;99.90;;;;;;5975425;23;20529;-39
2022/03/13 02:31:31;;;;;;;23.65;15.20;;;5.40;99.90;;;;;;6003015;23;20019;-40
2022/03/13 02:38:29;;;;;;;25.75;14.52;;;5.40;99.90;;;;;;6004423;23;20462;-40
2022/03/13 02:41:49;;;;;;;23.95;16.02;;;5.40;99.90;;;;;;5978339;23;20430;-39
2022/03/13 02:45:17;;;;;;;22.35;15.10;;;5.40;99.90;;;;;;6002932;23;20016;-40
2022/03/13 02:55:46;;;;;;;22.88;14.73;;;5.30;99.90;;;;;;6003161;23;20142;-40
2022/03/13 02:59:03;;;;;;;25.25;15.05;;;5.30;99.90;;;;;;5977819;23;20508;-40
2022/03/13 03:02:25;;;;;;;25.55;15.50;;;5.30;99.90;;;;;;5954679;23;20423;-40
2022/03/13 03:09:37;;;;;;;23.10;14.98;;;5.20;99.90;;;;;;6002560;23;20149;-40
2022/03/13 03:12:55;;;;;;;25.60;15.13;;;5.20;99.90;;;;;;6004508;23;20067;-39
2022/03/13 03:16:13;;;;;;;25.48;15.57;;;5.20;99.90;;;;;;5977061;23;20481;-40
2022/03/13 03:19:36;;;;;;;22.45;16.08;;;5.20;99.90;;;;;;5976526;23;20064;-39
2022/03/13 03:23:02;;;;;;;25.15;15.88;;;5.20;99.90;;;;;;5978239;23;20106;-40
2022/03/13 03:26:28;;;;;;;20.42;14.65;;;5.10;99.90;;;;;;5980456;23;20020;-39
2022/03/13 03:29:55;;;;;;;24.42;15.27;;;5.10;99.90;;;;;;5977651;23;20441;-39
2022/03/13 03:33:20;;;;;;;22.73;15.38;;;5.10;99.90;;;;;;6003154;23;20027;-40
2022/03/13 03:36:46;;;;;;;22.45;14.88;;;5.00;99.90;;;;;;5980126;23;20484;-40
2022/03/13 03:40:12;;;;;;;21.63;15.25;;;5.00;99.90;;;;;;5953169;23;20062;-40
2022/03/13 03:43:38;;;;;;;24.05;15.60;;;5.00;99.90;;;;;;5977328;23;20076;-40
2022/03/13 03:47:05;;;;;;;23.67;15.43;;;4.90;99.90;;;;;;6001934;23;20399;-40
2022/03/13 03:50:30;;;;;;;24.80;15.48;;;4.90;99.90;;;;;;6000607;23;20027;-39
2022/03/13 03:53:56;;;;;;;23.63;15.80;;;4.90;99.90;;;;;;5978553;23;20115;-40
2022/03/13 03:57:23;;;;;;;28.13;16.65;;;4.90;99.90;;;;;;5951708;23;20023;-40
2022/03/13 04:00:50;;;;;;;24.08;16.08;;;4.90;99.90;;;;;;5952776;23;20147;-40
2022/03/13 04:04:16;;;;;;;22.05;14.90;;;4.90;99.90;;;;;;5975499;23;20028;-40
2022/03/13 04:07:42;;;;;;;22.95;15.43;;;4.90;99.90;;;;;;6000967;23;20462;-40
2022/03/13 04:11:09;;;;;;;24.35;15.50;;;4.90;99.90;;;;;;5975421;23;20071;-39
2022/03/13 04:14:34;;;;;;;24.23;14.77;;;4.80;99.90;;;;;;5952328;23;20027;-40
2022/03/13 04:17:59;;;;;;;22.27;14.30;;;4.80;99.90;;;;;;6001261;23;20029;-39
2022/03/13 04:21:27;;;;;;;23.92;16.00;;;4.70;99.90;;;;;;6001668;23;20327;-40
2022/03/13 04:24:54;;;;;;;24.73;15.65;;;4.70;99.90;;;;;;6000794;23;20019;-39
2022/03/13 04:28:18;;;;;;;22.50;14.70;;;4.60;99.90;;;;;;5952567;23;20019;-39
2022/03/13 04:31:46;;;;;;;24.05;15.93;;;4.50;99.90;;;;;;6001236;23;20094;-39
2022/03/13 04:35:10;;;;;;;26.58;16.13;;;4.40;99.90;;;;;;5953046;23;20346;-39
2022/03/13 04:45:29;;;;;;;20.63;14.10;;;4.20;99.90;;;;;;5975439;23;20450;-39
2022/03/13 04:48:55;;;;;;;19.60;13.88;;;4.20;99.90;;;;;;6001393;23;20027;-39
2022/03/13 04:52:20;;;;;;;23.23;15.27;;;4.10;99.90;;;;;;6002696;23;20051;-40
2022/03/13 04:55:46;;;;;;;21.13;14.07;;;4.10;99.90;;;;;;6000942;23;20022;-39
2022/03/13 04:59:11;;;;;;;23.88;14.75;;;4.00;99.90;;;;;;6001120;23;20016;-39
2022/03/13 05:30:07;;;;;;;20.20;14.02;;;3.60;99.90;;;;;;6031966;23;20473;-39
2022/03/13 05:57:36;;;;;;;19.63;13.60;;;3.40;99.90;;;;;;6031436;23;20098;-39
2022/03/13 06:01:04;;;;;;;21.17;13.75;;;3.40;99.90;;;;;;6029898;23;20026;-39
2022/03/13 06:04:30;;;;;;;20.98;14.07;;;3.50;99.90;;;;;;6028817;23;20026;-39
2022/03/13 06:07:55;;;;;;;22.38;13.05;;;3.50;99.90;;;;;;6029689;23;20087;-39
2022/03/13 06:11:21;;;;;;;20.00;13.20;;;3.60;99.90;;;;;;6028992;23;20031;-39
2022/03/13 06:14:48;;;;;;;23.88;13.98;;;2.80;99.90;;;;;;6028928;23;20019;-39
2022/03/13 06:18:13;;;;;;;20.42;14.18;;;3.80;99.90;;;;;;6031110;23;20031;-39
2022/03/13 06:21:40;;;;;;;20.27;13.15;;;4.00;99.90;;;;;;6031595;23;20574;-39
2022/03/13 06:25:06;;;;;;;19.42;12.98;;;4.10;99.90;;;;;;6030547;23;20026;-39
2022/03/13 06:28:34;;;;;;;18.40;12.43;;;4.10;99.90;;;;;;6028047;23;20086;-40
2022/03/13 06:31:58;;;;;;;20.42;13.07;;;4.20;99.90;;;;;;6005464;23;20023;-39
2022/03/13 06:35:24;;;;;;;20.75;13.07;;;4.20;99.90;;;;;;6029425;23;20026;-39
2022/03/13 06:38:50;;;;;;;20.42;12.80;;;4.30;99.90;;;;;;6028989;23;20030;-39
2022/03/13 06:42:18;;;;;;;20.63;13.00;;;4.30;99.90;;;;;;6028679;23;20019;-39
2022/03/13 06:45:41;;;;;;;20.27;13.93;;;4.40;99.90;;;;;;6030332;23;20363;-39
2022/03/13 06:49:08;;;;;;;21.83;13.55;;;4.50;99.90;;;;;;6028327;23;20015;-39
2022/03/13 06:52:34;;;;;;;18.52;13.05;;;4.50;99.90;;;;;;6003435;23;20513;-39
2022/03/13 06:56:02;;;;;;;18.17;12.45;;;4.60;99.90;;;;;;6003412;23;20446;-39
2022/03/13 06:59:25;;;;;;;20.05;12.55;;;4.60;99.90;;;;;;6029484;23;20038;-40
2022/03/13 07:02:57;;;;;;;19.65;12.65;;;4.60;99.90;;;;;;6032169;23;20370;-39
2022/03/13 07:06:19;;;;;;;18.48;12.32;;;4.60;99.90;;;;;;6028817;23;20019;-40
2022/03/13 07:13:21;;;;;;;18.50;12.60;;;4.60;99.90;;;;;;6030459;23;20023;-40
2022/03/13 07:16:39;;;;;;;18.08;11.88;;;4.70;99.90;;;;;;6028990;23;20024;-40
2022/03/13 07:20:02;;;;;;;20.00;12.57;;;4.60;99.90;;;;;;6029651;23;20019;-39
2022/03/13 07:23:28;;;;;;;18.65;11.68;;;4.70;99.90;;;;;;6029962;23;20086;-40
2022/03/13 07:27:00;;;;;;;20.20;12.35;;;4.80;99.90;;;;;;6029955;23;20593;-40
2022/03/13 07:30:19;;;;;;;16.50;11.43;;;4.80;99.90;;;;;;5999051;23;20034;-39
2022/03/13 07:33:48;;;;;;;15.48;11.20;;;4.90;99.90;;;;;;6002624;23;20038;-39
2022/03/13 07:37:14;;;;;;;17.90;11.02;;;5.00;99.90;;;;;;6000751;23;20393;-39
2022/03/13 07:44:06;;;;;;;16.65;10.95;;;5.30;99.90;;;;;;6001565;23;20058;-38
2022/03/13 07:47:33;;;;;;;16.80;11.20;;;5.40;99.90;;;;;;5975553;23;20023;-39
2022/03/13 07:50:59;;;;;;;16.85;11.23;;;5.50;99.90;;;;;;6001612;23;20026;-39
2022/03/13 07:54:23;;;;;;;15.75;10.70;;;5.60;99.90;;;;;;5975319;23;20028;-40
2022/03/13 07:57:49;;;;;;;16.48;10.57;;;5.60;99.90;;;;;;6000962;23;20304;-40
2022/03/13 08:01:16;;;;;;;15.70;10.60;;;5.70;99.90;;;;;;6001612;23;20024;-39
2022/03/13 08:08:09;;;;;;;15.02;10.60;;;6.00;99.90;;;;;;6001220;23;20015;-39
2022/03/13 08:15:08;;;;;;;15.35;11.73;;;6.60;99.90;;;;;;5971555;24;20024;-40
2022/03/13 08:22:01;;;;;;;14.77;11.10;;;7.90;99.90;;;;;;5948439;24;20066;-40
2022/03/13 08:25:20;;;;;;;20.50;11.30;;;8.20;99.90;;;;;;5973493;24;20598;-40
2022/03/13 08:28:47;;;;;;;16.10;11.35;;;8.20;99.90;;;;;;5971833;24;20030;-41
2022/03/13 08:32:11;;;;;;;15.00;10.10;;;8.60;99.90;;;;;;5946606;24;20024;-40
2022/03/13 08:35:38;;;;;;;15.40;10.65;;;8.60;99.90;;;;;;5971655;24;20028;-40
2022/03/13 08:39:05;;;;;;;14.30;10.18;;;8.50;99.90;;;;;;5971213;24;20023;-40
2022/03/13 08:42:31;;;;;;;16.02;10.68;;;8.40;99.90;;;;;;5948790;24;20020;-40
2022/03/13 08:45:56;;;;;;;13.75;10.00;;;8.30;99.90;;;;;;5975174;24;20434;-40
2022/03/13 08:49:22;;;;;;;14.32;10.13;;;8.20;99.90;;;;;;5949508;24;20045;-41
2022/03/13 08:52:48;;;;;;;15.57;10.65;;;8.20;99.90;;;;;;5972078;24;20285;-40
2022/03/13 08:56:16;;;;;;;13.75;10.52;;;8.20;99.90;;;;;;5975119;24;20429;-41
2022/03/13 08:59:39;;;;;;;14.45;9.60;;;8.30;99.90;;;;;;5969632;24;20087;-41
2022/03/13 09:03:05;;;;;;;14.88;10.68;;;8.40;99.90;;;;;;5973648;24;20028;-40
2022/03/13 09:06:32;;;;;;;14.48;10.13;;;8.70;99.90;;;;;;5971938;24;20664;-41
2022/03/13 09:09:58;;;;;;;13.75;9.77;;;9.10;99.90;;;;;;5981089;23;20030;-40
2022/03/13 09:13:25;;;;;;;17.20;10.70;;;9.40;99.90;;;;;;5996731;23;20031;-40
2022/03/13 09:16:51;;;;;;;16.30;10.48;;;9.60;99.90;;;;;;5996471;23;20092;-40
2022/03/13 09:20:17;;;;;;;13.23;10.48;;;9.70;99.90;;;;;;5997028;23;20083;-40
2022/03/13 09:23:43;;;;;;;14.27;9.95;;;9.80;99.90;;;;;;5997717;23;20020;-40
2022/03/13 09:27:09;;;;;;;13.40;9.70;;;10.00;99.90;;;;;;5999857;23;20142;-40
2022/03/13 09:30:35;;;;;;;14.13;10.32;;;10.10;99.90;;;;;;5974546;23;20024;-40
2022/03/13 09:34:03;;;;;;;13.90;11.23;;;10.40;99.90;;;;;;5997562;23;20027;-40
2022/03/13 09:37:28;;;;;;;14.65;9.85;;;10.70;99.90;;;;;;5998307;23;20015;-41
2022/03/13 09:40:55;;;;;;;14.70;9.95;;;10.90;99.90;;;;;;5999990;23;20018;-40
2022/03/13 09:44:19;;;;;;;12.57;10.18;;;11.10;99.90;;;;;;5995303;23;20616;-41
2022/03/13 09:47:46;;;;;;;14.07;9.45;;;11.20;99.90;;;;;;5998650;23;20095;-42
2022/03/13 09:51:13;;;;;;;16.23;10.85;;;11.40;99.90;;;;;;5999089;23;20015;-40
2022/03/13 09:54:39;;;;;;;19.80;9.90;;;11.60;99.90;;;;;;6001341;23;20034;-41
2022/03/13 11:06:54;;;;;;;14.15;10.25;;;14.60;99.90;;;;;;6031224;23;20018;-46
2022/03/13 11:10:13;;;;;;;17.20;10.70;;;14.70;99.90;;;;;;6026286;23;20059;-43
2022/03/13 11:20:31;;;;;;;18.92;10.73;;;14.70;99.90;;;;;;6027790;23;20032;-45
2022/03/13 11:23:58;;;;;;;15.00;10.18;;;14.80;99.90;;;;;;6001741;23;20074;-43
2022/03/13 11:27:20;;;;;;;13.65;10.02;;;15.00;99.90;;;;;;5977286;23;20019;-43
2022/03/13 11:34:20;;;;;;;13.77;10.10;;;15.50;99.90;;;;;;5999292;23;20038;-44
2022/03/13 11:37:41;;;;;;;17.00;10.43;;;15.90;99.90;;;;;;6003475;23;20027;-43
2022/03/13 11:44:33;;;;;;;14.15;9.80;;;16.20;99.90;;;;;;6029013;23;19932;-46
2022/03/13 11:47:57;;;;;;;15.77;10.15;;;16.20;99.90;;;;;;6000292;23;20023;-43
2022/03/13 11:51:25;;;;;;;13.23;10.45;;;16.20;99.90;;;;;;5975090;23;20535;-43
2022/03/13 11:54:53;;;;;;;13.75;10.57;;;16.30;99.90;;;;;;6025441;23;20292;-44
2022/03/13 11:58:16;;;;;;;14.68;10.93;;;16.40;99.90;;;;;;5977874;23;20031;-46
2022/03/13 12:05:28;;;;;;;13.68;10.48;;;16.20;99.90;;;;;;6031728;23;20014;-45
2022/03/13 12:08:46;;;;;;;14.98;10.15;;;16.00;99.90;;;;;;5980610;23;20319;-44
2022/03/13 12:12:02;;;;;;;11.55;9.68;;;15.90;99.90;;;;;;5997181;23;20023;-44
2022/03/13 12:15:28;;;;;;;14.93;10.65;;;15.80;99.90;;;;;;6002343;23;20074;-44
2022/03/13 12:18:55;;;;;;;13.85;10.38;;;15.80;99.90;;;;;;5978990;23;20094;-45
2022/03/13 12:22:25;;;;;;;13.82;10.07;;;15.80;99.90;;;;;;5975128;23;20035;-45
2022/03/13 12:25:45;;;;;;;13.70;10.50;;;15.70;99.80;;;;;;6001739;23;20036;-44
2022/03/13 12:29:11;;;;;;;13.98;9.90;;;15.60;99.80;;;;;;5977034;23;20075;-45
2022/03/13 12:32:38;;;;;;;15.27;9.88;;;15.60;98.60;;;;;;6003242;23;20015;-45
2022/03/13 12:36:04;;;;;;;14.30;11.07;;;15.60;98.10;;;;;;5976874;23;20401;-45
2022/03/13 12:39:31;;;;;;;15.43;9.93;;;15.60;98.00;;;;;;5997763;23;20023;-46
2022/03/13 12:42:57;;;;;;;13.57;9.60;;;15.70;98.30;;;;;;5998821;23;20342;-44
2022/03/13 12:46:23;;;;;;;14.52;10.15;;;15.60;98.00;;;;;;5973488;23;20024;-44
2022/03/13 12:49:51;;;;;;;14.13;10.82;;;15.50;96.50;;;;;;5999535;23;20359;-45
2022/03/13 12:53:15;;;;;;;14.90;10.35;;;15.60;97.30;;;;;;5997526;23;20015;-44
2022/03/13 12:56:42;;;;;;;16.50;10.27;;;15.50;98.30;;;;;;5975561;23;20104;-45
2022/03/13 13:00:09;;;;;;;13.40;10.32;;;15.50;96.30;;;;;;5976437;23;20016;-45
2022/03/13 13:03:37;;;;;;;13.07;9.68;;;15.50;95.70;;;;;;6000825;23;20055;-44
2022/03/13 13:07:00;;;;;;;14.77;10.73;;;15.60;95.20;;;;;;6001839;23;20307;-45
2022/03/13 13:10:29;;;;;;;15.07;11.60;;;15.60;94.20;;;;;;6000266;23;20026;-44
2022/03/13 13:13:52;;;;;;;15.40;10.13;;;15.60;95.00;;;;;;5998954;23;20494;-45
2022/03/13 13:17:24;;;;;;;14.65;9.82;;;15.70;94.00;;;;;;6002946;23;20019;-44
2022/03/13 13:20:46;;;;;;;12.30;9.60;;;15.60;94.50;;;;;;5999611;23;20513;-45
2022/03/13 13:24:11;;;;;;;15.68;10.55;;;15.60;94.30;;;;;;6001315;23;20055;-46
2022/03/13 13:27:38;;;;;;;13.13;9.73;;;15.60;93.70;;;;;;5998206;23;20381;-44
2022/03/13 13:31:01;;;;;;;12.43;10.27;;;15.60;93.80;;;;;;5998528;23;20015;-44
2022/03/13 13:34:31;;;;;;;13.38;10.35;;;15.60;92.60;;;;;;6000146;23;20433;-43
2022/03/13 13:37:56;;;;;;;14.25;10.43;;;15.60;92.00;;;;;;5991389;23;20363;-45
2022/03/13 13:41:23;;;;;;;15.73;10.82;;;15.60;92.30;;;;;;5999763;23;20023;-44
2022/03/13 13:44:45;;;;;;;14.82;10.65;;;15.70;93.00;;;;;;5975615;23;20388;-44
2022/03/13 13:48:12;;;;;;;14.80;10.30;;;15.70;91.10;;;;;;5970093;23;20346;-44
2022/03/13 13:51:44;;;;;;;13.80;9.88;;;15.60;90.50;;;;;;5975457;23;20034;-45
2022/03/13 13:55:05;;;;;;;14.40;10.60;;;15.70;91.90;;;;;;5997285;23;20024;-43
2022/03/13 13:58:32;;;;;;;16.08;10.73;;;15.70;91.90;;;;;;5993620;23;20062;-44
2022/03/13 14:01:56;;;;;;;17.40;10.43;;;15.70;90.00;;;;;;5996640;23;20076;-43
2022/03/13 14:05:23;;;;;;;15.82;10.05;;;15.80;91.50;;;;;;5995139;23;20015;-46
2022/03/13 14:08:47;;;;;;;18.95;10.65;;;15.90;88.70;;;;;;6000500;23;20024;-44
2022/03/13 14:12:14;;;;;;;15.07;10.35;;;15.80;89.20;;;;;;6001847;23;20115;-45
2022/03/13 14:15:42;;;;;;;12.93;10.18;;;15.70;90.20;;;;;;5974221;23;20035;-43
2022/03/13 14:19:05;;;;;;;15.98;11.35;;;15.60;91.30;;;;;;5998291;23;20430;-41
2022/03/13 14:22:33;;;;;;;15.63;10.70;;;15.50;89.60;;;;;;5996305;23;20036;-43
2022/03/13 14:26:00;;;;;;;16.70;10.30;;;15.40;90.30;;;;;;5976727;23;20023;-43
2022/03/13 14:29:25;;;;;;;14.57;10.02;;;15.30;88.30;;;;;;5972702;23;20427;-42
2022/03/13 14:32:51;;;;;;;16.70;11.13;;;15.20;90.30;;;;;;5976168;23;20129;-41
2022/03/13 14:36:18;;;;;;;17.00;10.32;;;15.20;88.40;;;;;;5973386;23;20024;-41
2022/03/13 14:39:44;;;;;;;13.95;10.48;;;15.10;87.30;;;;;;5976530;23;20143;-42
2022/03/13 14:43:09;;;;;;;14.52;9.85;;;15.10;87.00;;;;;;6000234;23;20522;-41
2022/03/13 14:46:35;;;;;;;13.75;9.90;;;15.00;87.30;;;;;;5973482;23;20060;-41
2022/03/13 14:50:02;;;;;;;13.35;10.63;;;15.00;89.90;;;;;;6000976;23;20024;-41
2022/03/13 14:53:33;;;;;;;15.88;11.07;;;14.90;88.40;;;;;;5952015;23;20020;-42
2022/03/13 14:56:53;;;;;;;16.65;10.20;;;14.90;90.00;;;;;;6000758;23;20548;-41
2022/03/13 15:03:47;;;;;;;14.13;10.45;;;14.80;88.60;;;;;;5977350;23;19937;-41
2022/03/13 15:07:14;;;;;;;15.32;10.90;;;14.90;89.80;;;;;;5975785;23;20414;-41
2022/03/13 15:10:40;;;;;;;15.55;11.00;;;14.80;91.00;;;;;;5975640;23;20019;-42
2022/03/13 15:14:07;;;;;;;14.75;10.15;;;14.80;89.40;;;;;;5952165;23;20746;-41
2022/03/13 15:17:31;;;;;;;13.27;10.38;;;14.70;88.80;;;;;;5999998;23;20079;-41
2022/03/13 15:24:26;;;;;;;13.57;9.73;;;14.70;89.50;;;;;;6031281;23;20071;-41
2022/03/13 15:27:51;;;;;;;15.88;10.75;;;14.70;88.20;;;;;;6005380;23;20034;-40
2022/03/13 15:31:16;;;;;;;14.68;10.50;;;14.70;90.30;;;;;;5982271;23;20023;-40
2022/03/13 15:34:42;;;;;;;13.93;10.40;;;14.70;90.60;;;;;;6003828;23;20047;-41
2022/03/13 15:38:08;;;;;;;16.45;10.43;;;14.60;90.40;;;;;;5998995;23;20090;-41
2022/03/13 15:41:33;;;;;;;14.27;9.63;;;14.60;90.50;;;;;;6029962;23;20019;-41
2022/03/13 15:45:00;;;;;;;14.27;10.55;;;14.50;91.00;;;;;;5981822;23;20424;-41
2022/03/13 15:48:27;;;;;;;13.93;10.07;;;14.50;91.00;;;;;;5979673;23;20026;-41
2022/03/13 15:51:53;;;;;;;15.50;9.57;;;14.40;89.40;;;;;;6026803;23;20019;-41
2022/03/13 15:55:17;;;;;;;14.57;9.50;;;14.40;90.00;;;;;;6005558;23;20059;-41
2022/03/13 15:58:43;;;;;;;13.82;10.10;;;14.30;89.90;;;;;;6006920;23;20086;-41
2022/03/13 16:02:09;;;;;;;16.45;9.90;;;14.20;90.50;;;;;;5981094;23;20342;-40
2022/03/13 16:09:13;;;;;;;14.93;10.32;;;14.10;91.80;;;;;;6030049;23;20027;-41
2022/03/13 16:12:30;;;;;;;13.48;9.93;;;14.00;91.30;;;;;;5979887;23;20097;-41
2022/03/13 16:15:52;;;;;;;13.75;10.30;;;13.80;89.80;;;;;;6003725;23;20113;-40
2022/03/13 16:22:47;;;;;;;13.23;10.02;;;13.60;90.00;;;;;;6027804;23;19925;-41
2022/03/13 16:26:12;;;;;;;14.35;10.15;;;13.50;90.60;;;;;;6004913;23;20106;-39
2022/03/13 16:29:35;;;;;;;13.77;10.10;;;13.40;91.70;;;;;;5979656;23;20031;-39
2022/03/13 16:33:02;;;;;;;13.45;10.38;;;13.40;90.80;;;;;;5979643;23;20455;-39
2022/03/13 16:35:28;;;;;;;16.60;10.25;;;13.30;91.90;;;;;;5996306;23;20023;-39
2022/03/13 16:38:14;;;;;;;15.35;10.32;;;13.20;92.70;;;;;;5932005;24;20469;-39
2022/03/13 16:51:58;;;;;;;17.15;10.45;;;12.70;92.50;;;;;;5969534;24;20099;-39
2022/03/13 17:40:03;;;;;;;16.38;11.00;;;10.30;98.20;;;;;;6002757;23;20400;-39
2022/03/13 18:11:02;;;;;;;16.33;10.65;;;9.50;99.90;;;;;;5999945;23;20160;-38
2022/03/13 18:35:06;;;;;;;17.42;12.90;;;9.00;99.90;;;;;;6029874;23;20023;-38
2022/03/13 18:48:49;;;;;;;17.15;12.15;;;8.50;99.90;;;;;;6003036;23;20023;-38
2022/03/13 18:59:06;;;;;;;18.23;12.35;;;8.50;99.90;;;;;;6004147;23;20395;-38
2022/03/13 19:26:42;;;;;;;16.77;10.85;;;8.20;99.90;;;;;;6003200;23;20131;-38
2022/03/13 19:29:59;;;;;;;16.17;11.80;;;8.10;99.90;;;;;;6029297;23;20020;-38
2022/03/13 19:33:26;;;;;;;17.63;11.27;;;8.10;99.90;;;;;;6004453;23;20175;-38
2022/03/13 19:36:51;;;;;;;17.33;11.02;;;8.10;99.90;;;;;;5978525;23;20071;-38
2022/03/13 19:40:17;;;;;;;17.52;10.85;;;8.10;99.90;;;;;;6029307;23;20306;-38
2022/03/13 19:43:42;;;;;;;15.70;10.43;;;8.10;99.90;;;;;;6028043;23;20262;-38
2022/03/13 19:47:10;;;;;;;17.17;10.65;;;8.10;99.90;;;;;;6031465;23;20063;-38
2022/03/13 19:50:34;;;;;;;15.55;11.10;;;8.00;99.90;;;;;;6006606;23;20022;-38
2022/03/13 19:54:00;;;;;;;17.65;11.13;;;7.90;99.90;;;;;;6004337;23;20016;-37
2022/03/13 19:57:25;;;;;;;16.42;10.90;;;7.80;99.90;;;;;;6027633;23;20505;-37
2022/03/13 20:00:54;;;;;;;15.57;11.13;;;7.80;99.90;;;;;;6031874;23;20362;-38
2022/03/13 20:04:18;;;;;;;16.73;11.15;;;7.70;99.90;;;;;;6002706;23;20019;-38
2022/03/13 20:07:43;;;;;;;14.43;10.27;;;7.50;99.90;;;;;;6005630;23;20015;-37
2022/03/13 20:11:09;;;;;;;14.23;10.15;;;7.50;99.90;;;;;;6005923;23;20102;-37
2022/03/13 20:14:36;;;;;;;19.13;10.30;;;7.40;99.90;;;;;;6029844;23;20027;-37
2022/03/13 20:18:06;;;;;;;18.30;11.50;;;7.30;99.90;;;;;;5980141;23;20019;-38
2022/03/13 20:21:35;;;;;;;15.20;10.48;;;7.20;99.90;;;;;;5981562;23;20023;-38
2022/03/13 20:24:53;;;;;;;14.10;10.05;;;7.10;99.90;;;;;;6003918;23;20030;-37
2022/03/13 20:28:19;;;;;;;13.93;9.65;;;7.10;99.90;;;;;;6004731;23;20026;-37
2022/03/13 20:31:45;;;;;;;13.60;9.73;;;7.00;99.90;;;;;;6002119;23;20077;-37
2022/03/13 20:35:10;;;;;;;13.23;9.73;;;7.00;99.90;;;;;;6028737;23;20027;-37
2022/03/13 20:38:36;;;;;;;15.98;9.45;;;6.90;99.90;;;;;;6000824;23;20023;-37
2022/03/13 20:42:02;;;;;;;16.48;9.88;;;6.90;99.90;;;;;;6002830;23;20020;-37
2022/03/13 20:45:28;;;;;;;15.30;9.82;;;6.90;99.90;;;;;;6028684;23;20011;-37
2022/03/13 20:48:54;;;;;;;20.42;9.40;;;6.80;99.90;;;;;;5980385;23;20094;-37
2022/03/13 20:52:20;;;;;;;16.00;9.55;;;6.80;99.90;;;;;;6004880;23;20023;-37
2022/03/13 20:55:46;;;;;;;12.93;9.38;;;6.80;99.90;;;;;;6002905;23;20028;-37
2022/03/13 20:59:12;;;;;;;15.40;9.32;;;6.80;99.90;;;;;;6001674;23;20282;-37
2022/03/13 21:02:38;;;;;;;12.45;9.15;;;6.90;99.90;;;;;;6002166;23;20038;-37
2022/03/13 21:06:06;;;;;;;15.55;8.63;;;6.90;99.90;;;;;;5978798;23;20037;-37
2022/03/13 21:09:30;;;;;;;14.68;9.52;;;7.00;99.90;;;;;;6028463;23;20015;-38
2022/03/13 21:12:57;;;;;;;13.52;10.30;;;7.00;99.90;;;;;;5979899;23;20026;-37
2022/03/13 21:16:23;;;;;;;13.85;9.80;;;7.10;99.90;;;;;;6028227;23;20295;-37
2022/03/13 21:19:49;;;;;;;14.38;9.98;;;7.10;99.90;;;;;;6003484;23;20019;-37
2022/03/13 21:23:16;;;;;;;15.77;9.07;;;7.10;99.90;;;;;;5976211;23;20127;-38
2022/03/13 21:26:40;;;;;;;15.88;10.18;;;7.00;99.90;;;;;;5975581;23;20096;-37
2022/03/13 21:30:06;;;;;;;15.27;9.65;;;6.90;99.90;;;;;;5974311;23;20096;-37
2022/03/13 21:33:34;;;;;;;13.43;9.45;;;6.90;99.90;;;;;;5973501;23;20067;-37
2022/03/13 21:36:57;;;;;;;12.63;9.52;;;6.90;99.90;;;;;;5951933;23;20019;-37
2022/03/13 21:40:23;;;;;;;13.23;10.18;;;6.80;99.90;;;;;;6002893;23;20051;-37
2022/03/13 21:43:50;;;;;;;17.08;10.15;;;6.80;99.90;;;;;;5977382;23;20103;-37
2022/03/13 21:47:16;;;;;;;13.25;9.35;;;6.80;99.90;;;;;;5975183;23;20027;-37
2022/03/13 21:50:43;;;;;;;16.67;9.75;;;6.70;99.90;;;;;;5974054;23;20019;-37
2022/03/13 21:54:08;;;;;;;15.45;9.45;;;6.60;99.90;;;;;;5999563;23;20016;-37
2022/03/13 21:57:34;;;;;;;12.68;8.98;;;6.60;99.90;;;;;;5976850;23;20049;-37
2022/03/13 22:01:00;;;;;;;13.02;8.88;;;6.50;99.90;;;;;;5976091;23;20015;-37
2022/03/13 22:04:26;;;;;;;13.30;8.93;;;6.50;99.90;;;;;;6002988;23;20024;-37
2022/03/13 22:07:53;;;;;;;12.52;9.25;;;6.50;99.90;;;;;;5954478;23;20015;-37
2022/03/13 22:11:20;;;;;;;14.25;8.95;;;6.50;99.90;;;;;;5975540;23;20027;-37
2022/03/13 22:14:49;;;;;;;12.32;9.52;;;6.50;99.90;;;;;;5974977;23;20130;-37
2022/03/13 22:18:13;;;;;;;14.15;9.00;;;6.50;99.90;;;;;;5976069;23;20731;-37
2022/03/13 22:25:10;;;;;;;13.18;9.25;;;6.60;99.90;;;;;;6028632;23;20027;-37
2022/03/13 22:28:32;;;;;;;12.75;8.40;;;6.60;99.90;;;;;;6027186;23;20023;-37
2022/03/13 22:31:55;;;;;;;14.35;8.73;;;6.80;99.90;;;;;;6002583;23;20106;-37
2022/03/13 22:45:39;;;;;;;12.57;9.23;;;7.30;99.90;;;;;;6001418;23;20034;-37
2022/03/13 22:51:28;;;;;;;12.95;8.60;;;7.50;99.90;;;;;;6029287;23;20395;-37
2022/03/13 22:54:19;;;;;;;11.40;8.30;;;7.50;99.90;;;;;;6027838;23;20011;-37
2022/03/13 22:57:44;;;;;;;11.25;8.25;;;7.60;99.90;;;;;;6002490;23;20027;-37
2022/03/13 23:35:28;;;;;;;15.45;9.52;;;7.60;99.90;;;;;;6024955;23;20023;-37
